Challenge Plus — 9VJH7 — position and weather

sailwx.info

Track history (hours):
 
Tides and Currents Weather Stations Pressure Air Temp Water Temp Dewpoint Dewpoint Depression Visibility Wind Speed Wind Dir Waves Ship Positions

Challenge Plus

Last reported at 2014-Dec-19 17:30 UTC. Time now 2014-Dec-20 05:54 UTC.
Position N 01°15' E 104°08'.

Length 179 m; draft 11.4 m.

Type: Tanker. MMSI: 565267000.

Date/timePositionNaut miles runAvg speedWind from/ knotsBaromVisibWave heightAir tempDewpointWater temp
2014-Dec-19 17:30N 01°15' E 104°08'1111.7
2014-Dec-19 16:33N 01°13' E 103°57'8 7.4
2014-Dec-19 15:25N 01°10' E 103°49'9 9.8
2014-Dec-19 14:32N 01°04' E 103°42'9211.5
2014-Dec-19 06:33N 01°49' E 102°22'28 5.1
2014-Dec-19 01:05N 02°12' E 102°06'  
2014-Dec-16 17:13N 01°54' E 102°22'912.6
2014-Dec-16 16:31N 01°50' E 102°30'1313.3
2014-Dec-16 15:33N 01°45' E 102°42'6113.8
2014-Dec-16 11:07N 01°12' E 103°34'713.3
2014-Dec-16 10:33N 01°10' E 103°41'1212.4
2014-Dec-16 09:33N 01°13' E 103°53'8 8.2
2014-Dec-16 08:33N 01°18' E 103°60'0 0.1
2014-Dec-16 07:14N 01°18' E 103°60'0 0.0
2014-Dec-16 06:29N 01°18' E 103°60'0 0.0
2014-Dec-16 02:32N 01°18' E 104°00'0 0.1
2014-Dec-16 01:04N 01°18' E 103°60'0 0.0
2014-Dec-16 00:29N 01°18' E 103°60'3 3.4
2014-Dec-15 23:33N 01°16' E 104°03'1110.8
2014-Dec-15 22:33N 01°17' E 104°14'  
2014-Dec-12 14:33S 07°30' E 115°07'1212.1
2014-Dec-12 13:32S 07°39' E 115°15'1212.2
2014-Dec-12 12:33S 07°46' E 115°25'  
Track history (hours):
 
Tides and Currents Weather Stations Pressure Air Temp Water Temp Dewpoint Dewpoint Depression Visibility Wind Speed Wind Dir Waves Ship Positions

Challenge Plus

Last reported at 2014-Dec-19 17:30 UTC. Time now 2014-Dec-20 05:54 UTC.
Position N 01°15' E 104°08'.

Length 179 m; draft 11.4 m.

Type: Tanker. MMSI: 565267000.

Date/timePositionNaut miles runAvg speedWind from/ knotsBaromVisibWave heightAir tempDewpointWater temp
2014-Dec-19 17:30N 01°15' E 104°08'1111.7
2014-Dec-19 16:33N 01°13' E 103°57'8 7.4
2014-Dec-19 15:25N 01°10' E 103°49'9 9.8
2014-Dec-19 14:32N 01°04' E 103°42'9211.5
2014-Dec-19 06:33N 01°49' E 102°22'28 5.1
2014-Dec-19 01:05N 02°12' E 102°06'  
2014-Dec-16 17:13N 01°54' E 102°22'912.6
2014-Dec-16 16:31N 01°50' E 102°30'1313.3
2014-Dec-16 15:33N 01°45' E 102°42'6113.8
2014-Dec-16 11:07N 01°12' E 103°34'713.3
2014-Dec-16 10:33N 01°10' E 103°41'1212.4
2014-Dec-16 09:33N 01°13' E 103°53'8 8.2
2014-Dec-16 08:33N 01°18' E 103°60'0 0.1
2014-Dec-16 07:14N 01°18' E 103°60'0 0.0
2014-Dec-16 06:29N 01°18' E 103°60'0 0.0
2014-Dec-16 02:32N 01°18' E 104°00'0 0.1
2014-Dec-16 01:04N 01°18' E 103°60'0 0.0
2014-Dec-16 00:29N 01°18' E 103°60'3 3.4
2014-Dec-15 23:33N 01°16' E 104°03'1110.8
2014-Dec-15 22:33N 01°17' E 104°14'  
2014-Dec-12 14:33S 07°30' E 115°07'1212.1
2014-Dec-12 13:32S 07°39' E 115°15'1212.2
2014-Dec-12 12:33S 07°46' E 115°25'  

Dump ship's entire track history